createdAt,value
2022-12-05T00:00:34.145Z,100376.53
2022-12-05T00:03:06.502Z,100374.94
2022-12-05T00:05:36.037Z,100377.91
2022-12-05T00:08:08.121Z,100380.06
2022-12-05T00:10:38.875Z,100381.69
2022-12-05T00:13:08.347Z,100392.16
2022-12-05T00:15:39.596Z,100393.78
2022-12-05T00:18:09.049Z,100395.97
2022-12-05T00:20:38.502Z,100394.28
2022-12-05T00:23:10.504Z,100394.28
2022-12-05T00:25:39.923Z,100394.97
2022-12-05T00:28:09.378Z,100401.56
2022-12-05T00:30:38.835Z,100408.41
2022-12-05T00:33:08.258Z,100408.28
2022-12-05T00:35:37.755Z,100407.91
2022-12-05T00:38:09.760Z,100408.06
2022-12-05T00:40:39.453Z,100409.56
2022-12-05T00:43:08.893Z,100412.16
2022-12-05T00:45:38.407Z,100411.47
2022-12-05T00:48:08.558Z,100415.28
2022-12-05T00:50:38.000Z,100413.19
2022-12-05T00:53:10.051Z,100426.75
2022-12-05T00:55:39.651Z,100420.25
2022-12-05T00:58:09.087Z,100421.59
2022-12-05T01:00:38.546Z,100429.44
2022-12-05T01:03:08.041Z,100420.59
2022-12-05T01:05:37.588Z,100425.47
2022-12-05T01:08:09.882Z,100441.81
2022-12-05T01:10:39.397Z,100440.09
2022-12-05T01:13:08.879Z,100445.50
2022-12-05T01:15:39.802Z,100436.22
2022-12-05T01:18:09.260Z,100438.72
2022-12-05T01:20:41.739Z,100435.81
2022-12-05T01:23:13.889Z,100433.69
2022-12-05T01:25:43.559Z,100437.13
2022-12-05T01:28:13.388Z,100431.56
2022-12-05T01:30:43.124Z,100443.69
2022-12-05T01:33:12.750Z,100434.03
2022-12-05T01:35:42.861Z,100443.69
2022-12-05T01:38:15.492Z,100447.63
2022-12-05T01:40:45.061Z,100443.09
2022-12-05T01:43:17.632Z,100439.38
2022-12-05T01:45:47.940Z,100453.19
2022-12-05T01:48:19.312Z,100449.59
2022-12-05T01:50:48.949Z,100450.41
2022-12-05T01:53:21.336Z,100450.25
2022-12-05T01:55:51.528Z,100446.66
2022-12-05T01:58:21.080Z,100457.13
2022-12-05T02:00:50.638Z,100459.09
2022-12-05T02:03:21.045Z,100453.34
2022-12-05T02:05:51.531Z,100459.56
2022-12-05T02:08:23.683Z,100462.31
2022-12-05T02:10:54.276Z,100458.72
2022-12-05T02:13:36.601Z,100465.56
2022-12-05T02:16:08.527Z,100468.47
2022-12-05T02:18:45.690Z,100467.72
2022-12-05T02:21:51.030Z,100469.72
2022-12-05T02:24:43.191Z,100464.16
2022-12-05T02:27:22.183Z,100461.84
2022-12-05T02:29:59.305Z,100462.53
2022-12-05T02:32:37.091Z,100456.31
2022-12-05T02:35:10.548Z,100464.69
2022-12-05T02:37:43.028Z,100458.78
2022-12-05T02:40:13.691Z,100456.81
2022-12-05T02:42:45.942Z,100457.50
2022-12-05T02:45:18.912Z,100459.97
2022-12-05T02:47:51.619Z,100455.88
2022-12-05T02:50:23.653Z,100460.84
2022-12-05T02:52:54.178Z,100455.47
2022-12-05T02:55:23.647Z,100459.38
2022-12-05T02:57:55.418Z,100459.91
2022-12-05T03:00:27.526Z,100453.69
2022-12-05T03:02:58.925Z,100459.13
2022-12-05T03:05:34.358Z,100454.44
2022-12-05T03:08:03.998Z,100453.13
2022-12-05T03:10:33.709Z,100453.13
2022-12-05T03:13:05.788Z,100459.03
2022-12-05T03:15:39.200Z,100457.72
2022-12-05T03:18:09.895Z,100454.50
2022-12-05T03:20:40.426Z,100459.75
2022-12-05T03:23:11.551Z,100458.44
2022-12-05T03:25:44.083Z,100466.38
2022-12-05T03:28:16.128Z,100471.94
2022-12-05T03:30:48.190Z,100481.78
2022-12-05T03:33:18.340Z,100482.13
2022-12-05T03:35:48.477Z,100491.97
2022-12-05T03:38:19.285Z,100489.41
2022-12-05T03:40:50.484Z,100495.25
2022-12-05T03:43:23.532Z,100498.06
2022-12-05T03:45:57.174Z,100499.97
2022-12-05T03:48:28.967Z,100496.22
2022-12-05T03:50:58.487Z,100491.16
2022-12-05T03:53:29.002Z,100493.25
2022-12-05T03:56:01.200Z,100492.47
2022-12-05T03:58:32.126Z,100498.13
2022-12-05T04:01:04.403Z,100500.09
2022-12-05T04:03:45.033Z,100507.19
2022-12-05T04:06:20.270Z,100503.94
2022-12-05T04:08:51.448Z,100505.31
2022-12-05T04:11:22.744Z,100508.72
2022-12-05T04:13:53.879Z,100508.44
2022-12-05T04:16:38.957Z,100498.16
2022-12-05T04:19:10.766Z,100501.09
2022-12-05T04:21:39.093Z,100505.81
2022-12-05T04:24:23.101Z,100508.72
2022-12-05T04:26:56.103Z,100511.19
2022-12-05T04:29:29.920Z,100516.59
2022-12-05T04:32:05.479Z,100513.66
2022-12-05T04:34:34.997Z,100517.94
2022-12-05T04:37:06.356Z,100517.94
2022-12-05T04:39:37.003Z,100524.66
2022-12-05T04:42:07.987Z,100528.53
2022-12-05T04:44:39.120Z,100535.66
2022-12-05T04:47:11.270Z,100534.94
2022-12-05T04:49:40.761Z,100536.59
2022-12-05T04:52:10.970Z,100532.81
2022-12-05T04:54:41.893Z,100535.00
2022-12-05T04:57:13.271Z,100545.41
2022-12-05T04:59:42.752Z,100557.72
2022-12-05T05:02:16.423Z,100551.69
2022-12-05T05:04:47.186Z,100547.94
2022-12-05T05:07:16.715Z,100557.56
2022-12-05T05:09:46.227Z,100554.31
2022-12-05T05:12:18.974Z,100555.94
2022-12-05T05:14:48.760Z,100554.00
2022-12-05T05:17:20.936Z,100555.63
2022-12-05T05:19:50.517Z,100552.88
2022-12-05T05:22:19.982Z,100561.06
2022-12-05T05:24:49.476Z,100558.34
2022-12-05T05:27:18.968Z,100560.59
2022-12-05T05:29:48.492Z,100549.31
2022-12-05T05:32:20.592Z,100538.88
2022-12-05T05:34:50.110Z,100535.97
2022-12-05T05:37:19.629Z,100542.47
2022-12-05T05:39:49.132Z,100550.00
2022-12-05T05:42:18.771Z,100541.00
2022-12-05T05:44:48.351Z,100542.22
2022-12-05T05:47:20.550Z,100544.16
2022-12-05T05:49:50.095Z,100551.03
2022-12-05T05:52:19.739Z,100552.16
2022-12-05T05:54:49.256Z,100554.66
2022-12-05T05:57:20.517Z,100558.22
2022-12-05T05:59:50.333Z,100553.81
2022-12-05T06:02:22.586Z,100554.47
2022-12-05T06:04:52.176Z,100555.16
2022-12-05T06:07:21.793Z,100548.94
2022-12-05T06:09:51.663Z,100549.59
2022-12-05T06:12:21.610Z,100551.91
2022-12-05T06:14:51.270Z,100553.53
2022-12-05T06:17:23.563Z,100551.41
2022-12-05T06:19:53.487Z,100556.13
2022-12-05T06:22:23.084Z,100561.81
2022-12-05T06:24:52.611Z,100563.00
2022-12-05T06:27:22.240Z,100568.09
2022-12-05T06:29:51.835Z,100566.25
2022-12-05T06:32:24.123Z,100573.13
2022-12-05T06:34:53.608Z,100571.75
2022-12-05T06:37:23.217Z,100568.88
2022-12-05T06:39:53.831Z,100574.41
2022-12-05T06:42:23.703Z,100578.41
2022-12-05T06:44:53.251Z,100579.59
2022-12-05T06:47:25.453Z,100584.97
2022-12-05T06:49:55.218Z,100579.19
2022-12-05T06:52:25.119Z,100590.13
2022-12-05T06:54:54.760Z,100594.25
2022-12-05T06:57:24.301Z,100589.94
2022-12-05T07:00:13.812Z,100587.50
2022-12-05T07:02:43.497Z,100580.72
2022-12-05T07:05:13.402Z,100589.81
2022-12-05T07:07:42.975Z,100598.38
2022-12-05T07:10:12.731Z,100596.06
2022-12-05T07:12:42.274Z,100608.16
2022-12-05T07:15:12.537Z,100609.53
2022-12-05T07:17:42.266Z,100609.34
2022-12-05T07:20:17.973Z,100618.28
2022-12-05T07:22:48.754Z,100615.78
2022-12-05T07:25:20.390Z,100619.75
2022-12-05T07:27:52.335Z,100616.50
2022-12-05T07:30:22.116Z,100613.25
2022-12-05T07:32:51.927Z,100609.00
2022-12-05T07:35:25.332Z,100614.88
2022-12-05T07:38:17.497Z,100612.28
2022-12-05T07:43:52.797Z,100621.63
2022-12-05T07:49:27.603Z,100613.34
2022-12-05T07:52:10.693Z,100639.53
2022-12-05T08:01:23.525Z,100648.34
2022-12-05T08:08:02.266Z,100647.09
2022-12-05T08:10:42.977Z,100653.94
2022-12-05T08:13:31.909Z,100669.38
2022-12-05T08:19:53.353Z,100678.75
2022-12-05T08:22:47.082Z,100678.69
2022-12-05T08:28:59.251Z,100683.84
2022-12-05T08:35:00.345Z,100685.84
2022-12-05T08:38:26.088Z,100690.41
2022-12-05T08:41:46.291Z,100695.94
2022-12-05T08:44:56.135Z,100701.50
2022-12-05T08:48:04.930Z,100702.38
2022-12-05T08:50:39.275Z,100699.72
2022-12-05T08:53:10.089Z,100697.97
2022-12-05T08:55:40.022Z,100708.66
2022-12-05T08:58:11.549Z,100710.59
2022-12-05T09:00:53.526Z,100711.44
2022-12-05T09:03:23.362Z,100711.75
2022-12-05T09:05:54.839Z,100711.00
2022-12-05T09:08:24.660Z,100706.19
2022-12-05T09:10:54.317Z,100717.38
2022-12-05T09:13:24.252Z,100712.84
2022-12-05T09:15:56.657Z,100712.72
2022-12-05T09:18:26.497Z,100712.97
2022-12-05T09:20:56.167Z,100710.56
2022-12-05T09:23:25.835Z,100718.94
2022-12-05T09:26:16.842Z,100710.41
2022-12-05T09:33:04.858Z,100716.63
2022-12-05T09:39:16.885Z,100723.50
2022-12-05T09:42:18.767Z,100728.91
2022-12-05T09:45:14.551Z,100730.50
2022-12-05T09:47:51.261Z,100727.22
2022-12-05T09:50:23.406Z,100734.06
2022-12-05T09:53:19.184Z,100733.41
2022-12-05T09:55:52.410Z,100735.97
2022-12-05T09:58:34.070Z,100738.47
2022-12-05T10:01:07.088Z,100733.44
2022-12-05T10:03:41.877Z,100732.69
2022-12-05T10:06:15.869Z,100732.34
2022-12-05T10:08:57.172Z,100729.94
2022-12-05T10:11:31.521Z,100726.53
2022-12-05T10:14:04.753Z,100723.84
2022-12-05T10:16:35.401Z,100718.44
2022-12-05T10:19:06.681Z,100719.81
2022-12-05T10:21:37.160Z,100711.16
2022-12-05T10:24:08.031Z,100714.41
2022-12-05T10:26:41.415Z,100723.28
2022-12-05T10:29:15.445Z,100731.66
2022-12-05T10:31:45.200Z,100727.13
2022-12-05T10:34:18.250Z,100720.97
2022-12-05T10:36:52.720Z,100715.22
2022-12-05T10:39:25.634Z,100730.88
2022-12-05T10:41:58.534Z,100724.50
2022-12-05T10:44:28.246Z,100722.44
2022-12-05T10:46:58.035Z,100717.44
2022-12-05T10:49:27.700Z,100716.31
2022-12-05T10:52:00.997Z,100704.72
2022-12-05T10:54:40.005Z,100700.47
2022-12-05T10:57:23.835Z,100702.34
2022-12-05T10:59:53.771Z,100701.84
2022-12-05T11:02:27.204Z,100701.66
2022-12-05T11:04:57.194Z,100703.25
2022-12-05T11:07:29.799Z,100689.19
2022-12-05T11:09:59.488Z,100690.19
2022-12-05T11:12:33.292Z,100690.41
2022-12-05T11:15:04.946Z,100700.91
2022-12-05T11:17:36.007Z,100691.56
2022-12-05T11:20:07.104Z,100695.72
2022-12-05T11:22:37.379Z,100697.19
2022-12-05T11:25:26.494Z,100697.69
2022-12-05T11:28:01.492Z,100698.00
2022-12-05T11:30:31.875Z,100699.00
2022-12-05T11:33:14.696Z,100706.41
2022-12-05T11:43:04.835Z,100710.63
2022-12-05T12:29:30.489Z,100696.03
2022-12-05T12:32:13.746Z,100693.41
2022-12-05T12:35:04.479Z,100694.41
2022-12-05T12:37:41.570Z,100691.47
2022-12-05T12:40:19.187Z,100689.34
2022-12-05T12:43:07.128Z,100686.69
2022-12-05T12:45:56.715Z,100688.84
2022-12-05T12:48:41.793Z,100685.38
2022-12-05T12:51:14.772Z,100685.66
2022-12-05T12:54:13.870Z,100682.69
2022-12-05T13:09:22.851Z,100692.00
2022-12-05T13:12:03.161Z,100694.53
2022-12-05T13:14:38.385Z,100692.59
2022-12-05T13:17:23.185Z,100695.72
2022-12-05T13:19:53.485Z,100692.75
2022-12-05T13:22:29.705Z,100692.72
2022-12-05T13:25:30.139Z,100701.00
2022-12-05T13:28:04.110Z,100693.63
2022-12-05T13:30:54.934Z,100689.72
2022-12-05T13:38:15.497Z,100684.03
2022-12-05T13:41:37.211Z,100683.34
2022-12-05T13:47:35.997Z,100677.09
2022-12-05T13:50:10.687Z,100692.25
2022-12-05T13:52:45.799Z,100686.06
2022-12-05T13:55:23.089Z,100693.44
2022-12-05T13:57:54.619Z,100697.16
2022-12-05T14:00:37.202Z,100685.41
2022-12-05T14:03:08.827Z,100691.22
2022-12-05T14:05:49.177Z,100689.91
2022-12-05T14:09:00.345Z,100701.91
2022-12-05T14:11:30.081Z,100701.59
2022-12-05T14:14:04.699Z,100700.41
2022-12-05T14:16:52.646Z,100710.63
2022-12-05T14:19:44.593Z,100710.63
2022-12-05T14:22:43.985Z,100706.13
2022-12-05T14:25:20.307Z,100718.09
2022-12-05T14:27:53.136Z,100719.53
2022-12-05T14:30:33.861Z,100725.09
2022-12-05T14:33:14.781Z,100710.97
2022-12-05T14:35:46.218Z,100716.00
2022-12-05T14:38:23.311Z,100710.03
2022-12-05T14:40:53.051Z,100713.66
2022-12-05T14:43:23.747Z,100719.13
2022-12-05T14:46:00.563Z,100716.84
2022-12-05T14:48:34.770Z,100723.72
2022-12-05T14:51:04.644Z,100715.28
2022-12-05T14:53:42.351Z,100718.47
2022-12-05T14:56:18.952Z,100713.50
2022-12-05T14:58:52.183Z,100721.19
2022-12-05T15:01:24.553Z,100715.56
2022-12-05T15:04:11.654Z,100717.56
2022-12-05T15:06:47.776Z,100712.09
2022-12-05T15:09:38.973Z,100713.06
2022-12-05T15:12:09.913Z,100715.28
2022-12-05T15:14:42.643Z,100711.94
2022-12-05T15:17:13.113Z,100725.56
2022-12-05T15:19:50.859Z,100730.00
2022-12-05T15:22:49.240Z,100728.78
2022-12-05T15:25:26.996Z,100728.59
2022-12-05T15:28:11.780Z,100727.66
2022-12-05T15:30:46.229Z,100724.75
2022-12-05T15:33:18.659Z,100730.59
2022-12-05T15:35:51.261Z,100728.06
2022-12-05T15:38:27.324Z,100728.56
2022-12-05T15:40:58.235Z,100724.63
2022-12-05T15:43:32.921Z,100719.81
2022-12-05T15:46:24.761Z,100723.28
2022-12-05T15:48:55.225Z,100727.41
2022-12-05T15:51:29.907Z,100731.75
2022-12-05T15:54:01.385Z,100733.53
2022-12-05T15:56:34.514Z,100734.72
2022-12-05T15:59:05.841Z,100739.19
2022-12-05T16:01:35.609Z,100744.81
2022-12-05T16:04:08.067Z,100748.25
2022-12-05T16:06:41.509Z,100748.59
2022-12-05T16:09:12.031Z,100750.94
2022-12-05T16:11:56.569Z,100751.59
2022-12-05T16:17:17.102Z,100749.47
2022-12-05T16:19:46.898Z,100747.63
2022-12-05T16:22:25.218Z,100753.84
2022-12-05T16:25:00.443Z,100752.78
2022-12-05T16:27:31.597Z,100756.50
2022-12-05T16:30:11.073Z,100746.63
2022-12-05T16:32:44.159Z,100750.00
2022-12-05T16:35:30.187Z,100759.75
2022-12-05T16:38:15.633Z,100752.56
2022-12-05T16:40:54.031Z,100764.06
2022-12-05T16:43:27.695Z,100750.94
2022-12-05T16:45:58.752Z,100753.91
2022-12-05T16:48:29.324Z,100754.94
2022-12-05T16:51:19.257Z,100752.31
2022-12-05T16:53:52.158Z,100748.88
2022-12-05T16:56:23.557Z,100756.28
2022-12-05T16:58:57.388Z,100751.16
2022-12-05T17:01:34.334Z,100756.28
2022-12-05T17:04:18.545Z,100756.63
2022-12-05T17:06:48.298Z,100761.03
2022-12-05T17:09:20.687Z,100765.28
2022-12-05T17:11:50.670Z,100760.38
2022-12-05T17:14:20.485Z,100761.06
2022-12-05T17:17:08.828Z,100766.47
2022-12-05T17:20:04.293Z,100764.19
2022-12-05T17:22:37.250Z,100772.72
2022-12-05T17:25:31.850Z,100765.31
2022-12-05T17:28:01.971Z,100765.81
2022-12-05T17:30:34.383Z,100760.72
2022-12-05T17:33:09.908Z,100770.88
2022-12-05T17:36:02.930Z,100773.06
2022-12-05T17:38:48.224Z,100770.88
2022-12-05T17:41:30.548Z,100771.22
2022-12-05T17:44:23.161Z,100764.69
2022-12-05T17:46:54.981Z,100766.81
2022-12-05T17:49:35.393Z,100769.78
2022-12-05T17:52:22.076Z,100764.53
2022-12-05T17:54:52.618Z,100767.78
2022-12-05T17:57:28.382Z,100770.59
2022-12-05T18:00:06.841Z,100772.25
2022-12-05T18:03:04.616Z,100771.25
2022-12-05T18:06:32.636Z,100777.66
2022-12-05T18:13:32.021Z,100784.06
2022-12-05T18:17:11.732Z,100776.03
2022-12-05T18:19:50.889Z,100778.50
2022-12-05T18:22:35.601Z,100788.34
2022-12-05T18:25:44.391Z,100778.25
2022-12-05T18:28:29.512Z,100775.78
2022-12-05T18:31:09.892Z,100788.06
2022-12-05T18:33:49.930Z,100779.03
2022-12-05T18:39:26.263Z,100768.91
2022-12-05T18:42:11.739Z,100773.97
2022-12-05T18:44:49.103Z,100777.63
2022-12-05T18:47:29.610Z,100771.22
2022-12-05T18:50:00.611Z,100781.28
2022-12-05T18:52:37.021Z,100778.16
2022-12-05T18:55:17.256Z,100779.28
2022-12-05T18:58:00.775Z,100780.75
2022-12-05T19:00:33.044Z,100777.97
2022-12-05T19:03:07.950Z,100783.56
2022-12-05T19:05:43.386Z,100776.50
2022-12-05T19:08:27.549Z,100779.97
2022-12-05T19:11:47.014Z,100774.53
2022-12-05T19:14:38.540Z,100777.50
2022-12-05T19:17:11.369Z,100778.81
2022-12-05T19:19:42.696Z,100776.16
2022-12-05T19:22:13.115Z,100772.09
2022-12-05T19:24:43.647Z,100772.72
2022-12-05T19:27:20.470Z,100775.69
2022-12-05T19:29:57.378Z,100781.13
2022-12-05T19:32:30.012Z,100780.47
2022-12-05T19:35:00.251Z,100789.81
2022-12-05T19:37:31.098Z,100783.25
2022-12-05T19:40:03.423Z,100783.59
2022-12-05T19:42:38.328Z,100784.72
2022-12-05T19:45:12.247Z,100787.34
2022-12-05T19:47:47.220Z,100789.94
2022-12-05T19:50:17.029Z,100781.91
2022-12-05T19:52:46.850Z,100788.13
2022-12-05T19:55:16.699Z,100781.59
2022-12-05T19:57:48.927Z,100783.22
2022-12-05T20:00:20.011Z,100786.34
2022-12-05T20:02:52.156Z,100792.91
2022-12-05T20:05:21.874Z,100793.38
2022-12-05T20:07:51.691Z,100789.28
2022-12-05T20:10:21.544Z,100791.75
2022-12-05T20:12:51.205Z,100796.69
2022-12-05T20:15:21.890Z,100803.09
2022-12-05T20:17:55.274Z,100805.06
2022-12-05T20:20:28.137Z,100798.50
2022-12-05T20:22:57.784Z,100800.81
2022-12-05T20:25:30.967Z,100801.78
2022-12-05T20:28:00.621Z,100801.16
2022-12-05T20:30:35.840Z,100799.16
2022-12-05T20:33:08.179Z,100804.25
2022-12-05T20:35:39.023Z,100800.34
2022-12-05T20:38:09.094Z,100802.47
2022-12-05T20:40:47.678Z,100805.09
2022-12-05T20:43:20.264Z,100800.34
2022-12-05T20:46:34.846Z,100803.13
2022-12-05T20:53:00.012Z,100808.34
2022-12-05T20:55:31.221Z,100799.31
2022-12-05T20:58:04.929Z,100799.31
2022-12-05T21:00:35.587Z,100802.28
2022-12-05T21:03:26.943Z,100800.97
2022-12-05T21:12:24.785Z,100795.34
2022-12-05T21:14:55.391Z,100797.97
2022-12-05T21:17:39.443Z,100794.19
2022-12-05T21:20:13.695Z,100792.69
2022-12-05T21:22:44.085Z,100802.72
2022-12-05T21:25:13.744Z,100801.91
2022-12-05T21:27:46.081Z,100805.97
2022-12-05T21:30:17.902Z,100796.31
2022-12-05T21:32:48.216Z,100796.81
2022-12-05T21:35:24.599Z,100793.53
2022-12-05T21:38:01.531Z,100787.28
2022-12-05T21:40:31.632Z,100783.38
2022-12-05T21:43:04.186Z,100786.31
2022-12-05T21:45:41.581Z,100791.75
2022-12-05T21:48:12.932Z,100795.97
2022-12-05T21:50:42.603Z,100787.13
2022-12-05T21:53:14.007Z,100783.03
2022-12-05T21:55:44.583Z,100789.59
2022-12-05T21:58:17.159Z,100780.91
2022-12-05T22:00:47.376Z,100792.59
2022-12-05T22:03:17.759Z,100796.84
2022-12-05T22:05:48.780Z,100789.28
2022-12-05T22:08:18.674Z,100798.28
2022-12-05T22:10:49.909Z,100802.06
2022-12-05T22:13:22.656Z,100804.53
2022-12-05T22:15:52.900Z,100808.50
2022-12-05T22:18:23.205Z,100809.97
2022-12-05T22:20:58.537Z,100805.38
2022-12-05T22:23:28.684Z,100809.34
2022-12-05T22:26:00.340Z,100807.38
2022-12-05T22:28:33.090Z,100811.81
2022-12-05T22:31:04.268Z,100812.63
2022-12-05T22:33:35.984Z,100818.53
2022-12-05T22:36:06.472Z,100813.13
2022-12-05T22:38:37.493Z,100814.13
2022-12-05T22:41:08.815Z,100815.31
2022-12-05T22:43:41.368Z,100807.22
2022-12-05T22:46:11.951Z,100812.44
2022-12-05T22:48:41.747Z,100809.34
2022-12-05T22:51:11.705Z,100812.28
2022-12-05T22:53:41.411Z,100811.81
2022-12-05T22:56:12.453Z,100811.97
2022-12-05T22:58:44.464Z,100812.31
2022-12-05T23:01:14.688Z,100795.84
2022-12-05T23:03:44.874Z,100809.97
2022-12-05T23:06:14.986Z,100798.63
2022-12-05T23:08:45.046Z,100802.94
2022-12-05T23:11:16.099Z,100799.97
2022-12-05T23:13:48.125Z,100800.66
2022-12-05T23:16:21.414Z,100786.19
2022-12-05T23:18:51.612Z,100792.88
2022-12-05T23:21:23.658Z,100791.75
2022-12-05T23:23:54.488Z,100779.25
2022-12-05T23:26:24.980Z,100787.63
2022-12-05T23:28:57.289Z,100766.94
2022-12-05T23:31:27.054Z,100782.84
2022-12-05T23:34:01.440Z,100773.81
2022-12-05T23:36:32.924Z,100772.03
2022-12-05T23:39:02.751Z,100772.19
2022-12-05T23:41:32.513Z,100764.31
2022-12-05T23:44:04.939Z,100772.63
2022-12-05T23:46:34.640Z,100776.34
2022-12-05T23:49:04.326Z,100772.56
2022-12-05T23:51:34.116Z,100776.06
2022-12-05T23:54:04.230Z,100771.81
2022-12-05T23:56:34.931Z,100768.22
2022-12-05T23:59:08.547Z,100782.16
